sensor_id;sensor_type;location;lat;lon;timestamp;temperature;humidity
10245;DHT22;5167;52.164;10.530;2023-03-12T00:01:26;3.20;13.70
10245;DHT22;5167;52.164;10.530;2023-03-12T00:03:54;3.30;14.20
10245;DHT22;5167;52.164;10.530;2023-03-12T00:06:20;3.20;13.90
10245;DHT22;5167;52.164;10.530;2023-03-12T00:08:46;3.30;14.20
10245;DHT22;5167;52.164;10.530;2023-03-12T00:11:15;3.30;14.50
10245;DHT22;5167;52.164;10.530;2023-03-12T00:13:41;3.30;14.00
10245;DHT22;5167;52.164;10.530;2023-03-12T00:16:10;3.20;13.90
10245;DHT22;5167;52.164;10.530;2023-03-12T00:18:36;3.20;13.70
10245;DHT22;5167;52.164;10.530;2023-03-12T00:21:02;3.20;14.10
10245;DHT22;5167;52.164;10.530;2023-03-12T00:23:29;3.20;13.60
10245;DHT22;5167;52.164;10.530;2023-03-12T00:26:05;3.30;13.80
10245;DHT22;5167;52.164;10.530;2023-03-12T00:28:31;3.20;13.90
10245;DHT22;5167;52.164;10.530;2023-03-12T00:30:57;3.20;14.30
10245;DHT22;5167;52.164;10.530;2023-03-12T00:33:24;3.20;14.20
10245;DHT22;5167;52.164;10.530;2023-03-12T00:35:50;3.20;13.70
10245;DHT22;5167;52.164;10.530;2023-03-12T00:38:15;3.20;13.70
10245;DHT22;5167;52.164;10.530;2023-03-12T00:40:41;3.10;14.50
10245;DHT22;5167;52.164;10.530;2023-03-12T00:43:06;3.10;14.00
10245;DHT22;5167;52.164;10.530;2023-03-12T00:45:32;3.10;14.20
10245;DHT22;5167;52.164;10.530;2023-03-12T00:47:57;3.10;14.40
10245;DHT22;5167;52.164;10.530;2023-03-12T00:50:23;3.10;14.30
10245;DHT22;5167;52.164;10.530;2023-03-12T00:52:48;3.00;14.60
10245;DHT22;5167;52.164;10.530;2023-03-12T00:55:14;3.10;14.30
10245;DHT22;5167;52.164;10.530;2023-03-12T00:57:39;3.00;14.20
10245;DHT22;5167;52.164;10.530;2023-03-12T01:00:06;3.00;14.20
10245;DHT22;5167;52.164;10.530;2023-03-12T01:02:36;3.00;14.60
10245;DHT22;5167;52.164;10.530;2023-03-12T01:05:02;3.00;14.80
10245;DHT22;5167;52.164;10.530;2023-03-12T01:07:28;2.90;14.70
10245;DHT22;5167;52.164;10.530;2023-03-12T01:09:53;3.00;15.10
10245;DHT22;5167;52.164;10.530;2023-03-12T01:12:18;3.00;15.00
10245;DHT22;5167;52.164;10.530;2023-03-12T01:14:44;3.00;14.90
10245;DHT22;5167;52.164;10.530;2023-03-12T01:17:10;3.00;15.40
10245;DHT22;5167;52.164;10.530;2023-03-12T01:19:35;3.00;15.30
10245;DHT22;5167;52.164;10.530;2023-03-12T01:22:01;3.00;15.00
10245;DHT22;5167;52.164;10.530;2023-03-12T01:24:26;3.00;14.70
10245;DHT22;5167;52.164;10.530;2023-03-12T01:26:52;3.00;14.40
10245;DHT22;5167;52.164;10.530;2023-03-12T01:29:17;3.00;15.30
10245;DHT22;5167;52.164;10.530;2023-03-12T01:31:43;3.00;15.00
10245;DHT22;5167;52.164;10.530;2023-03-12T01:34:10;3.00;15.10
10245;DHT22;5167;52.164;10.530;2023-03-12T01:36:36;3.00;14.90
10245;DHT22;5167;52.164;10.530;2023-03-12T01:39:02;3.00;15.00
10245;DHT22;5167;52.164;10.530;2023-03-12T01:41:29;3.10;14.60
10245;DHT22;5167;52.164;10.530;2023-03-12T01:44:00;3.10;14.70
10245;DHT22;5167;52.164;10.530;2023-03-12T01:46:42;3.10;14.60
10245;DHT22;5167;52.164;10.530;2023-03-12T01:49:13;3.10;14.20
10245;DHT22;5167;52.164;10.530;2023-03-12T01:51:44;3.00;14.20
10245;DHT22;5167;52.164;10.530;2023-03-12T01:54:16;3.10;14.30
10245;DHT22;5167;52.164;10.530;2023-03-12T01:56:43;3.10;15.00
10245;DHT22;5167;52.164;10.530;2023-03-12T01:59:22;3.00;14.80
10245;DHT22;5167;52.164;10.530;2023-03-12T02:01:48;3.10;15.80
10245;DHT22;5167;52.164;10.530;2023-03-12T02:04:17;3.10;15.60
10245;DHT22;5167;52.164;10.530;2023-03-12T02:06:49;3.10;16.60
10245;DHT22;5167;52.164;10.530;2023-03-12T02:09:15;3.10;16.20
10245;DHT22;5167;52.164;10.530;2023-03-12T02:11:44;3.00;16.20
10245;DHT22;5167;52.164;10.530;2023-03-12T02:14:09;3.00;16.40
10245;DHT22;5167;52.164;10.530;2023-03-12T02:16:35;3.00;16.70
10245;DHT22;5167;52.164;10.530;2023-03-12T02:19:01;2.90;16.70
10245;DHT22;5167;52.164;10.530;2023-03-12T02:21:30;3.00;17.00
10245;DHT22;5167;52.164;10.530;2023-03-12T02:27:15;2.90;17.10
10245;DHT22;5167;52.164;10.530;2023-03-12T02:29:44;2.80;17.90
10245;DHT22;5167;52.164;10.530;2023-03-12T02:32:17;2.90;17.30
10245;DHT22;5167;52.164;10.530;2023-03-12T02:34:44;2.90;17.50
10245;DHT22;5167;52.164;10.530;2023-03-12T02:37:12;2.80;17.50
10245;DHT22;5167;52.164;10.530;2023-03-12T02:39:39;2.90;18.10
10245;DHT22;5167;52.164;10.530;2023-03-12T02:42:05;2.90;17.60
10245;DHT22;5167;52.164;10.530;2023-03-12T02:44:32;2.90;17.70
10245;DHT22;5167;52.164;10.530;2023-03-12T02:46:59;2.90;17.80
10245;DHT22;5167;52.164;10.530;2023-03-12T02:49:29;2.90;17.30
10245;DHT22;5167;52.164;10.530;2023-03-12T02:51:55;2.90;17.50
10245;DHT22;5167;52.164;10.530;2023-03-12T02:54:22;2.90;17.30
10245;DHT22;5167;52.164;10.530;2023-03-12T02:56:48;2.90;16.40
10245;DHT22;5167;52.164;10.530;2023-03-12T02:59:15;2.90;17.30
10245;DHT22;5167;52.164;10.530;2023-03-12T03:01:41;2.80;17.30
10245;DHT22;5167;52.164;10.530;2023-03-12T03:04:08;2.80;17.20
10245;DHT22;5167;52.164;10.530;2023-03-12T03:06:35;2.90;17.20
10245;DHT22;5167;52.164;10.530;2023-03-12T03:09:01;2.80;17.00
10245;DHT22;5167;52.164;10.530;2023-03-12T03:11:28;2.90;17.50
10245;DHT22;5167;52.164;10.530;2023-03-12T03:13:54;2.80;16.60
10245;DHT22;5167;52.164;10.530;2023-03-12T03:16:20;2.80;17.40
10245;DHT22;5167;52.164;10.530;2023-03-12T03:18:46;2.90;16.90
10245;DHT22;5167;52.164;10.530;2023-03-12T03:21:12;2.80;16.40
10245;DHT22;5167;52.164;10.530;2023-03-12T03:23:42;2.80;17.40
10245;DHT22;5167;52.164;10.530;2023-03-12T03:26:08;2.80;16.40
10245;DHT22;5167;52.164;10.530;2023-03-12T03:28:34;2.70;17.40
10245;DHT22;5167;52.164;10.530;2023-03-12T03:30:59;2.80;17.10
10245;DHT22;5167;52.164;10.530;2023-03-12T03:33:31;2.70;17.30
10245;DHT22;5167;52.164;10.530;2023-03-12T03:35:58;2.80;17.60
10245;DHT22;5167;52.164;10.530;2023-03-12T03:38:25;2.80;16.80
10245;DHT22;5167;52.164;10.530;2023-03-12T03:40:51;2.80;17.10
10245;DHT22;5167;52.164;10.530;2023-03-12T03:43:16;2.80;17.40
10245;DHT22;5167;52.164;10.530;2023-03-12T03:45:42;2.70;17.20
10245;DHT22;5167;52.164;10.530;2023-03-12T03:48:09;2.70;17.50
10245;DHT22;5167;52.164;10.530;2023-03-12T03:50:36;2.80;17.10
10245;DHT22;5167;52.164;10.530;2023-03-12T03:53:02;2.70;17.10
10245;DHT22;5167;52.164;10.530;2023-03-12T03:55:27;2.70;17.00
10245;DHT22;5167;52.164;10.530;2023-03-12T03:57:53;2.70;16.80
10245;DHT22;5167;52.164;10.530;2023-03-12T04:00:18;2.70;17.10
10245;DHT22;5167;52.164;10.530;2023-03-12T04:02:44;2.70;17.30
10245;DHT22;5167;52.164;10.530;2023-03-12T04:05:10;2.60;17.30
10245;DHT22;5167;52.164;10.530;2023-03-12T04:07:36;2.70;17.10
10245;DHT22;5167;52.164;10.530;2023-03-12T04:10:03;2.70;16.70
10245;DHT22;5167;52.164;10.530;2023-03-12T04:12:29;2.60;17.00
10245;DHT22;5167;52.164;10.530;2023-03-12T04:14:55;2.60;16.20
10245;DHT22;5167;52.164;10.530;2023-03-12T04:17:21;2.60;16.50
10245;DHT22;5167;52.164;10.530;2023-03-12T04:19:46;2.60;16.80
10245;DHT22;5167;52.164;10.530;2023-03-12T04:22:12;2.60;16.20
10245;DHT22;5167;52.164;10.530;2023-03-12T04:24:37;2.60;16.60
10245;DHT22;5167;52.164;10.530;2023-03-12T04:27:03;2.60;16.40
10245;DHT22;5167;52.164;10.530;2023-03-12T04:29:29;2.60;16.40
10245;DHT22;5167;52.164;10.530;2023-03-12T04:31:54;2.60;16.40
10245;DHT22;5167;52.164;10.530;2023-03-12T04:34:20;2.60;16.40
10245;DHT22;5167;52.164;10.530;2023-03-12T04:36:45;2.60;17.00
10245;DHT22;5167;52.164;10.530;2023-03-12T04:39:11;2.50;17.10
10245;DHT22;5167;52.164;10.530;2023-03-12T04:41:37;2.50;16.80
10245;DHT22;5167;52.164;10.530;2023-03-12T04:44:03;2.60;17.00
10245;DHT22;5167;52.164;10.530;2023-03-12T04:46:29;2.60;17.00
10245;DHT22;5167;52.164;10.530;2023-03-12T04:48:54;2.50;17.20
10245;DHT22;5167;52.164;10.530;2023-03-12T04:51:20;2.50;17.00
10245;DHT22;5167;52.164;10.530;2023-03-12T04:53:45;2.50;16.80
10245;DHT22;5167;52.164;10.530;2023-03-12T04:56:11;2.50;17.20
10245;DHT22;5167;52.164;10.530;2023-03-12T04:58:37;2.50;17.80
10245;DHT22;5167;52.164;10.530;2023-03-12T05:01:03;2.40;17.50
10245;DHT22;5167;52.164;10.530;2023-03-12T05:03:30;2.40;17.80
10245;DHT22;5167;52.164;10.530;2023-03-12T05:05:56;2.30;18.00
10245;DHT22;5167;52.164;10.530;2023-03-12T05:08:21;2.30;18.50
10245;DHT22;5167;52.164;10.530;2023-03-12T05:10:47;2.30;18.30
10245;DHT22;5167;52.164;10.530;2023-03-12T05:13:17;2.30;18.70
10245;DHT22;5167;52.164;10.530;2023-03-12T05:15:44;2.40;19.10
10245;DHT22;5167;52.164;10.530;2023-03-12T05:18:10;2.20;19.40
10245;DHT22;5167;52.164;10.530;2023-03-12T05:20:35;2.30;18.80
10245;DHT22;5167;52.164;10.530;2023-03-12T05:23:01;2.30;19.50
10245;DHT22;5167;52.164;10.530;2023-03-12T05:25:26;2.30;19.70
10245;DHT22;5167;52.164;10.530;2023-03-12T05:27:52;2.30;20.20
10245;DHT22;5167;52.164;10.530;2023-03-12T05:30:17;2.30;20.60
10245;DHT22;5167;52.164;10.530;2023-03-12T05:32:43;2.40;19.80
10245;DHT22;5167;52.164;10.530;2023-03-12T05:35:09;2.30;20.00
10245;DHT22;5167;52.164;10.530;2023-03-12T05:37:34;2.40;20.00
10245;DHT22;5167;52.164;10.530;2023-03-12T05:40:00;2.60;19.60
10245;DHT22;5167;52.164;10.530;2023-03-12T05:42:25;2.50;20.30
10245;DHT22;5167;52.164;10.530;2023-03-12T05:44:51;2.50;19.70
10245;DHT22;5167;52.164;10.530;2023-03-12T05:47:17;2.50;19.30
10245;DHT22;5167;52.164;10.530;2023-03-12T05:49:43;2.50;19.90
10245;DHT22;5167;52.164;10.530;2023-03-12T05:52:09;2.50;19.90
10245;DHT22;5167;52.164;10.530;2023-03-12T05:54:35;2.50;19.70
10245;DHT22;5167;52.164;10.530;2023-03-12T05:57:00;2.50;19.70
10245;DHT22;5167;52.164;10.530;2023-03-12T05:59:28;2.60;19.60
10245;DHT22;5167;52.164;10.530;2023-03-12T06:01:54;2.60;19.90
10245;DHT22;5167;52.164;10.530;2023-03-12T06:04:20;2.60;20.10
10245;DHT22;5167;52.164;10.530;2023-03-12T06:06:46;2.60;19.70
10245;DHT22;5167;52.164;10.530;2023-03-12T06:09:12;2.60;19.20
10245;DHT22;5167;52.164;10.530;2023-03-12T06:11:38;2.60;19.30
10245;DHT22;5167;52.164;10.530;2023-03-12T06:14:04;2.70;18.80
10245;DHT22;5167;52.164;10.530;2023-03-12T06:16:29;2.70;18.10
10245;DHT22;5167;52.164;10.530;2023-03-12T06:18:57;2.70;17.50
10245;DHT22;5167;52.164;10.530;2023-03-12T06:21:26;2.70;18.60
10245;DHT22;5167;52.164;10.530;2023-03-12T06:23:52;2.60;18.50
10245;DHT22;5167;52.164;10.530;2023-03-12T06:26:19;2.60;18.30
10245;DHT22;5167;52.164;10.530;2023-03-12T06:28:46;2.60;18.10
10245;DHT22;5167;52.164;10.530;2023-03-12T06:31:12;2.60;18.10
10245;DHT22;5167;52.164;10.530;2023-03-12T06:33:38;2.60;18.20
10245;DHT22;5167;52.164;10.530;2023-03-12T06:36:05;2.50;18.50
10245;DHT22;5167;52.164;10.530;2023-03-12T06:38:32;2.50;17.80
10245;DHT22;5167;52.164;10.530;2023-03-12T06:41:00;2.50;18.40
10245;DHT22;5167;52.164;10.530;2023-03-12T06:43:27;2.50;18.50
10245;DHT22;5167;52.164;10.530;2023-03-12T06:45:54;2.60;19.00
10245;DHT22;5167;52.164;10.530;2023-03-12T06:48:19;2.60;19.70
10245;DHT22;5167;52.164;10.530;2023-03-12T06:50:45;2.50;19.00
10245;DHT22;5167;52.164;10.530;2023-03-12T06:53:11;2.50;19.20
10245;DHT22;5167;52.164;10.530;2023-03-12T06:55:36;2.50;19.70
10245;DHT22;5167;52.164;10.530;2023-03-12T06:58:02;2.60;19.50
10245;DHT22;5167;52.164;10.530;2023-03-12T07:00:29;2.50;19.70
10245;DHT22;5167;52.164;10.530;2023-03-12T07:02:54;2.60;19.80
10245;DHT22;5167;52.164;10.530;2023-03-12T07:05:21;2.60;19.10
10245;DHT22;5167;52.164;10.530;2023-03-12T07:07:47;2.80;20.10
10245;DHT22;5167;52.164;10.530;2023-03-12T07:10:12;2.70;19.20
10245;DHT22;5167;52.164;10.530;2023-03-12T07:12:38;2.70;19.30
10245;DHT22;5167;52.164;10.530;2023-03-12T07:15:04;2.70;19.20
10245;DHT22;5167;52.164;10.530;2023-03-12T07:17:29;2.70;19.40
10245;DHT22;5167;52.164;10.530;2023-03-12T07:19:55;2.70;18.70
10245;DHT22;5167;52.164;10.530;2023-03-12T07:22:20;2.80;18.10
10245;DHT22;5167;52.164;10.530;2023-03-12T07:24:46;2.80;18.50
10245;DHT22;5167;52.164;10.530;2023-03-12T07:27:11;2.80;18.60
10245;DHT22;5167;52.164;10.530;2023-03-12T07:29:37;2.80;18.20
10245;DHT22;5167;52.164;10.530;2023-03-12T07:32:02;2.90;19.10
10245;DHT22;5167;52.164;10.530;2023-03-12T07:34:28;2.90;18.40
10245;DHT22;5167;52.164;10.530;2023-03-12T07:36:53;2.90;18.50
10245;DHT22;5167;52.164;10.530;2023-03-12T07:39:20;2.90;18.30
10245;DHT22;5167;52.164;10.530;2023-03-12T07:41:46;2.90;18.50
10245;DHT22;5167;52.164;10.530;2023-03-12T07:44:11;3.00;17.90
10245;DHT22;5167;52.164;10.530;2023-03-12T07:46:37;3.00;18.00
10245;DHT22;5167;52.164;10.530;2023-03-12T07:49:02;3.00;18.60
10245;DHT22;5167;52.164;10.530;2023-03-12T07:51:29;3.00;18.40
10245;DHT22;5167;52.164;10.530;2023-03-12T07:53:55;3.10;18.70
10245;DHT22;5167;52.164;10.530;2023-03-12T07:56:20;3.10;19.60
10245;DHT22;5167;52.164;10.530;2023-03-12T07:58:46;3.20;19.10
10245;DHT22;5167;52.164;10.530;2023-03-12T08:01:12;3.30;19.70
10245;DHT22;5167;52.164;10.530;2023-03-12T08:03:37;3.30;19.90
10245;DHT22;5167;52.164;10.530;2023-03-12T08:06:03;3.30;20.00
10245;DHT22;5167;52.164;10.530;2023-03-12T08:08:30;3.50;20.20
10245;DHT22;5167;52.164;10.530;2023-03-12T08:10:56;3.50;20.00
10245;DHT22;5167;52.164;10.530;2023-03-12T08:13:22;3.50;19.90
10245;DHT22;5167;52.164;10.530;2023-03-12T08:15:49;3.60;19.30
10245;DHT22;5167;52.164;10.530;2023-03-12T08:18:16;3.60;20.20
10245;DHT22;5167;52.164;10.530;2023-03-12T08:20:42;3.80;20.20
10245;DHT22;5167;52.164;10.530;2023-03-12T08:23:07;3.80;19.30
10245;DHT22;5167;52.164;10.530;2023-03-12T08:25:32;4.00;18.90
10245;DHT22;5167;52.164;10.530;2023-03-12T08:27:58;3.90;19.90
10245;DHT22;5167;52.164;10.530;2023-03-12T08:30:24;3.90;19.70
10245;DHT22;5167;52.164;10.530;2023-03-12T08:32:49;4.00;19.70
10245;DHT22;5167;52.164;10.530;2023-03-12T08:35:15;4.00;19.40
10245;DHT22;5167;52.164;10.530;2023-03-12T08:37:40;4.00;18.80
10245;DHT22;5167;52.164;10.530;2023-03-12T08:40:06;4.10;18.20
10245;DHT22;5167;52.164;10.530;2023-03-12T08:42:44;4.10;18.10
10245;DHT22;5167;52.164;10.530;2023-03-12T08:45:11;4.20;18.70
10245;DHT22;5167;52.164;10.530;2023-03-12T08:47:37;4.30;17.30
10245;DHT22;5167;52.164;10.530;2023-03-12T08:50:06;4.30;17.20
10245;DHT22;5167;52.164;10.530;2023-03-12T08:52:32;4.30;17.40
10245;DHT22;5167;52.164;10.530;2023-03-12T08:54:57;4.40;17.20
10245;DHT22;5167;52.164;10.530;2023-03-12T08:57:23;4.40;16.80
10245;DHT22;5167;52.164;10.530;2023-03-12T08:59:48;4.50;16.50
10245;DHT22;5167;52.164;10.530;2023-03-12T09:02:14;4.50;16.70
10245;DHT22;5167;52.164;10.530;2023-03-12T09:04:39;4.60;15.80
10245;DHT22;5167;52.164;10.530;2023-03-12T09:07:05;4.60;14.70
10245;DHT22;5167;52.164;10.530;2023-03-12T09:09:30;4.80;14.80
10245;DHT22;5167;52.164;10.530;2023-03-12T09:11:56;4.90;15.30
10245;DHT22;5167;52.164;10.530;2023-03-12T09:14:21;4.80;14.30
10245;DHT22;5167;52.164;10.530;2023-03-12T09:16:48;4.90;15.30
10245;DHT22;5167;52.164;10.530;2023-03-12T09:19:13;4.90;15.00
10245;DHT22;5167;52.164;10.530;2023-03-12T09:21:39;4.90;15.60
10245;DHT22;5167;52.164;10.530;2023-03-12T09:24:05;5.00;14.50
10245;DHT22;5167;52.164;10.530;2023-03-12T09:26:31;5.00;14.40
10245;DHT22;5167;52.164;10.530;2023-03-12T09:28:57;5.10;13.60
10245;DHT22;5167;52.164;10.530;2023-03-12T09:31:24;5.10;13.60
10245;DHT22;5167;52.164;10.530;2023-03-12T09:33:50;5.10;14.30
10245;DHT22;5167;52.164;10.530;2023-03-12T09:36:15;5.10;14.30
10245;DHT22;5167;52.164;10.530;2023-03-12T09:38:41;5.10;14.30
10245;DHT22;5167;52.164;10.530;2023-03-12T09:41:16;5.20;13.90
10245;DHT22;5167;52.164;10.530;2023-03-12T09:46:30;5.40;14.20
10245;DHT22;5167;52.164;10.530;2023-03-12T09:49:02;5.60;14.10
10245;DHT22;5167;52.164;10.530;2023-03-12T09:51:34;5.40;11.90
10245;DHT22;5167;52.164;10.530;2023-03-12T09:54:05;5.50;11.50
10245;DHT22;5167;52.164;10.530;2023-03-12T09:56:32;5.60;11.40
10245;DHT22;5167;52.164;10.530;2023-03-12T09:58:58;5.60;10.00
10245;DHT22;5167;52.164;10.530;2023-03-12T10:01:43;5.60;9.20
10245;DHT22;5167;52.164;10.530;2023-03-12T10:07:15;5.70;9.80
10245;DHT22;5167;52.164;10.530;2023-03-12T10:12:57;5.70;10.80
10245;DHT22;5167;52.164;10.530;2023-03-12T10:15:53;5.70;10.30
10245;DHT22;5167;52.164;10.530;2023-03-12T10:18:54;5.80;8.50
10245;DHT22;5167;52.164;10.530;2023-03-12T10:24:06;5.90;9.30
10245;DHT22;5167;52.164;10.530;2023-03-12T10:26:52;5.90;9.70
10245;DHT22;5167;52.164;10.530;2023-03-12T10:29:28;5.90;10.20
10245;DHT22;5167;52.164;10.530;2023-03-12T10:34:56;6.00;10.20
10245;DHT22;5167;52.164;10.530;2023-03-12T10:37:30;6.00;9.60
10245;DHT22;5167;52.164;10.530;2023-03-12T10:39:58;6.00;8.80
10245;DHT22;5167;52.164;10.530;2023-03-12T10:42:28;6.10;8.40
10245;DHT22;5167;52.164;10.530;2023-03-12T10:44:58;6.20;8.90
10245;DHT22;5167;52.164;10.530;2023-03-12T10:52:36;6.40;7.30
10245;DHT22;5167;52.164;10.530;2023-03-12T10:55:12;6.50;7.90
10245;DHT22;5167;52.164;10.530;2023-03-12T10:57:39;6.40;6.80
10245;DHT22;5167;52.164;10.530;2023-03-12T11:00:12;6.40;6.40
10245;DHT22;5167;52.164;10.530;2023-03-12T11:02:45;6.40;7.20
10245;DHT22;5167;52.164;10.530;2023-03-12T11:05:32;6.30;7.70
10245;DHT22;5167;52.164;10.530;2023-03-12T11:07:59;6.30;7.00
10245;DHT22;5167;52.164;10.530;2023-03-12T11:10:42;6.30;6.50
10245;DHT22;5167;52.164;10.530;2023-03-12T11:13:23;6.30;6.80
10245;DHT22;5167;52.164;10.530;2023-03-12T11:15:49;6.30;7.30
10245;DHT22;5167;52.164;10.530;2023-03-12T11:18:24;6.30;7.40
10245;DHT22;5167;52.164;10.530;2023-03-12T11:20:56;6.40;6.20
10245;DHT22;5167;52.164;10.530;2023-03-12T11:23:29;6.40;5.50
10245;DHT22;5167;52.164;10.530;2023-03-12T11:25:57;6.50;5.60
10245;DHT22;5167;52.164;10.530;2023-03-12T11:28:31;6.40;6.20
10245;DHT22;5167;52.164;10.530;2023-03-12T11:30:59;6.50;6.20
10245;DHT22;5167;52.164;10.530;2023-03-12T11:33:25;6.50;6.50
10245;DHT22;5167;52.164;10.530;2023-03-12T11:38:22;6.50;5.60
10245;DHT22;5167;52.164;10.530;2023-03-12T11:46:31;6.60;5.90
10245;DHT22;5167;52.164;10.530;2023-03-12T11:49:16;6.50;5.50
10245;DHT22;5167;52.164;10.530;2023-03-12T11:57:03;6.50;6.30
10245;DHT22;5167;52.164;10.530;2023-03-12T12:00:25;6.60;6.90
10245;DHT22;5167;52.164;10.530;2023-03-12T12:05:46;6.50;8.50
10245;DHT22;5167;52.164;10.530;2023-03-12T12:14:26;6.40;8.90
10245;DHT22;5167;52.164;10.530;2023-03-12T12:17:04;6.40;10.30
10245;DHT22;5167;52.164;10.530;2023-03-12T12:33:29;6.50;12.10
10245;DHT22;5167;52.164;10.530;2023-03-12T12:35:57;6.40;12.50
10245;DHT22;5167;52.164;10.530;2023-03-12T12:38:36;6.40;11.60
10245;DHT22;5167;52.164;10.530;2023-03-12T12:41:40;6.40;12.50
10245;DHT22;5167;52.164;10.530;2023-03-12T12:44:15;6.40;12.90
10245;DHT22;5167;52.164;10.530;2023-03-12T12:46:46;6.40;12.70
10245;DHT22;5167;52.164;10.530;2023-03-12T12:52:02;6.50;13.70
10245;DHT22;5167;52.164;10.530;2023-03-12T12:57:04;6.50;13.20
10245;DHT22;5167;52.164;10.530;2023-03-12T13:02:24;6.60;12.20
10245;DHT22;5167;52.164;10.530;2023-03-12T13:04:55;6.60;12.30
10245;DHT22;5167;52.164;10.530;2023-03-12T13:09:51;6.60;11.10
10245;DHT22;5167;52.164;10.530;2023-03-12T13:12:35;6.60;11.70
10245;DHT22;5167;52.164;10.530;2023-03-12T13:15:33;6.70;12.10
10245;DHT22;5167;52.164;10.530;2023-03-12T13:20:59;6.70;12.80
10245;DHT22;5167;52.164;10.530;2023-03-12T13:23:54;6.70;13.70
10245;DHT22;5167;52.164;10.530;2023-03-12T13:28:59;6.60;14.40
10245;DHT22;5167;52.164;10.530;2023-03-12T13:37:01;6.60;15.90
10245;DHT22;5167;52.164;10.530;2023-03-12T13:39:33;6.60;15.80
10245;DHT22;5167;52.164;10.530;2023-03-12T13:42:00;6.60;16.70
10245;DHT22;5167;52.164;10.530;2023-03-12T13:49:45;6.80;17.60
10245;DHT22;5167;52.164;10.530;2023-03-12T13:52:24;6.70;18.60
10245;DHT22;5167;52.164;10.530;2023-03-12T13:55:05;6.70;18.50
10245;DHT22;5167;52.164;10.530;2023-03-12T13:57:43;6.80;19.90
10245;DHT22;5167;52.164;10.530;2023-03-12T14:00:25;6.80;21.30
10245;DHT22;5167;52.164;10.530;2023-03-12T14:03:05;6.70;24.60
10245;DHT22;5167;52.164;10.530;2023-03-12T14:05:51;6.70;26.80
10245;DHT22;5167;52.164;10.530;2023-03-12T14:14:00;6.60;29.20
10245;DHT22;5167;52.164;10.530;2023-03-12T14:16:37;6.60;29.50
10245;DHT22;5167;52.164;10.530;2023-03-12T14:19:05;6.60;30.20
10245;DHT22;5167;52.164;10.530;2023-03-12T14:21:36;6.60;30.80
10245;DHT22;5167;52.164;10.530;2023-03-12T14:24:05;6.60;31.40
10245;DHT22;5167;52.164;10.530;2023-03-12T14:26:34;6.60;32.10
10245;DHT22;5167;52.164;10.530;2023-03-12T14:31:42;6.60;33.10
10245;DHT22;5167;52.164;10.530;2023-03-12T14:34:16;6.50;34.10
10245;DHT22;5167;52.164;10.530;2023-03-12T14:42:09;6.60;34.20
10245;DHT22;5167;52.164;10.530;2023-03-12T14:44:36;6.60;34.50
10245;DHT22;5167;52.164;10.530;2023-03-12T14:47:05;6.60;34.50
10245;DHT22;5167;52.164;10.530;2023-03-12T14:49:44;6.60;35.10
10245;DHT22;5167;52.164;10.530;2023-03-12T14:52:24;6.70;36.20
10245;DHT22;5167;52.164;10.530;2023-03-12T14:57:20;6.70;36.60
10245;DHT22;5167;52.164;10.530;2023-03-12T15:00:00;6.70;37.40
10245;DHT22;5167;52.164;10.530;2023-03-12T15:02:28;6.70;37.60
10245;DHT22;5167;52.164;10.530;2023-03-12T15:04:56;6.70;38.20
10245;DHT22;5167;52.164;10.530;2023-03-12T15:07:43;6.70;38.90
10245;DHT22;5167;52.164;10.530;2023-03-12T15:10:22;6.70;39.40
10245;DHT22;5167;52.164;10.530;2023-03-12T15:12:50;6.70;40.60
10245;DHT22;5167;52.164;10.530;2023-03-12T15:15:39;6.50;40.90
10245;DHT22;5167;52.164;10.530;2023-03-12T15:18:10;6.60;42.20
10245;DHT22;5167;52.164;10.530;2023-03-12T15:20:37;6.60;43.10
10245;DHT22;5167;52.164;10.530;2023-03-12T15:23:05;6.60;44.50
10245;DHT22;5167;52.164;10.530;2023-03-12T15:25:32;6.60;46.20
10245;DHT22;5167;52.164;10.530;2023-03-12T15:28:21;6.70;47.00
10245;DHT22;5167;52.164;10.530;2023-03-12T15:31:04;6.70;48.90
10245;DHT22;5167;52.164;10.530;2023-03-12T15:33:30;6.70;49.70
10245;DHT22;5167;52.164;10.530;2023-03-12T15:36:22;6.60;50.30
10245;DHT22;5167;52.164;10.530;2023-03-12T15:38:53;6.60;50.40
10245;DHT22;5167;52.164;10.530;2023-03-12T15:41:30;6.70;50.90
10245;DHT22;5167;52.164;10.530;2023-03-12T15:43:58;6.70;51.00
10245;DHT22;5167;52.164;10.530;2023-03-12T15:46:25;6.70;51.00
10245;DHT22;5167;52.164;10.530;2023-03-12T15:48:54;6.70;50.60
10245;DHT22;5167;52.164;10.530;2023-03-12T15:51:32;6.80;51.10
10245;DHT22;5167;52.164;10.530;2023-03-12T15:56:43;6.80;51.90
10245;DHT22;5167;52.164;10.530;2023-03-12T16:01:58;6.80;54.80
10245;DHT22;5167;52.164;10.530;2023-03-12T16:04:24;6.80;56.90
10245;DHT22;5167;52.164;10.530;2023-03-12T16:06:50;6.80;58.50
10245;DHT22;5167;52.164;10.530;2023-03-12T16:09:23;6.80;60.50
10245;DHT22;5167;52.164;10.530;2023-03-12T16:11:51;6.80;62.40
10245;DHT22;5167;52.164;10.530;2023-03-12T16:14:21;6.80;62.70
10245;DHT22;5167;52.164;10.530;2023-03-12T16:16:47;6.80;63.70
10245;DHT22;5167;52.164;10.530;2023-03-12T16:19:14;6.80;64.60
10245;DHT22;5167;52.164;10.530;2023-03-12T16:21:41;6.80;65.00
10245;DHT22;5167;52.164;10.530;2023-03-12T16:24:07;6.90;65.20
10245;DHT22;5167;52.164;10.530;2023-03-12T16:26:35;6.90;65.60
10245;DHT22;5167;52.164;10.530;2023-03-12T16:29:01;6.80;66.00
10245;DHT22;5167;52.164;10.530;2023-03-12T16:31:26;6.90;66.10
10245;DHT22;5167;52.164;10.530;2023-03-12T16:33:52;6.90;67.10
10245;DHT22;5167;52.164;10.530;2023-03-12T16:36:17;6.90;66.90
10245;DHT22;5167;52.164;10.530;2023-03-12T16:38:44;7.00;65.80
10245;DHT22;5167;52.164;10.530;2023-03-12T16:41:15;7.00;65.60
10245;DHT22;5167;52.164;10.530;2023-03-12T16:43:44;7.00;65.40
10245;DHT22;5167;52.164;10.530;2023-03-12T16:46:15;7.20;66.30
10245;DHT22;5167;52.164;10.530;2023-03-12T16:48:43;7.20;66.10
10245;DHT22;5167;52.164;10.530;2023-03-12T16:51:13;7.10;66.00
10245;DHT22;5167;52.164;10.530;2023-03-12T16:53:39;7.10;65.60
10245;DHT22;5167;52.164;10.530;2023-03-12T16:56:04;7.20;65.60
10245;DHT22;5167;52.164;10.530;2023-03-12T16:58:31;7.20;64.80
10245;DHT22;5167;52.164;10.530;2023-03-12T17:00:57;7.10;66.10
10245;DHT22;5167;52.164;10.530;2023-03-12T17:03:29;7.20;65.00
10245;DHT22;5167;52.164;10.530;2023-03-12T17:05:56;7.30;65.20
10245;DHT22;5167;52.164;10.530;2023-03-12T17:08:21;7.30;65.00
10245;DHT22;5167;52.164;10.530;2023-03-12T17:10:47;7.30;66.40
10245;DHT22;5167;52.164;10.530;2023-03-12T17:13:21;7.30;67.00
10245;DHT22;5167;52.164;10.530;2023-03-12T17:15:48;7.40;69.50
10245;DHT22;5167;52.164;10.530;2023-03-12T17:18:13;7.30;73.80
10245;DHT22;5167;52.164;10.530;2023-03-12T17:20:39;7.30;75.90
10245;DHT22;5167;52.164;10.530;2023-03-12T17:23:05;7.30;79.50
10245;DHT22;5167;52.164;10.530;2023-03-12T17:25:33;7.30;84.80
10245;DHT22;5167;52.164;10.530;2023-03-12T17:27:59;7.20;91.50
10245;DHT22;5167;52.164;10.530;2023-03-12T17:30:27;7.20;96.30
10245;DHT22;5167;52.164;10.530;2023-03-12T17:33:03;7.20;99.90
10245;DHT22;5167;52.164;10.530;2023-03-12T17:35:29;7.30;99.90
10245;DHT22;5167;52.164;10.530;2023-03-12T17:37:55;7.20;99.90
10245;DHT22;5167;52.164;10.530;2023-03-12T17:40:21;7.30;99.90
10245;DHT22;5167;52.164;10.530;2023-03-12T17:42:46;7.30;99.90
10245;DHT22;5167;52.164;10.530;2023-03-12T17:45:12;7.20;99.90